Time;durP1;ratioP1;P1;durP2;ratioP2;P2;SDS_P1;SDS_P2;PMS_P1;PMS_P2;Temp;Humidity;BMP_temperature;BMP_pressure;BME280_temperature;BME280_humidity;BME280_pressure;Samples;Min_cycle;Max_cycle;Signal;HPM_P1;HPM_P2
2023/10/08 00:03:08;;;;;;;;;;;;;;;20.76;58.70;102161.06;5039672;28;19923;-46
2023/10/08 00:05:37;;;;;;;;;;;;;;;20.76;58.85;102155.66;5039459;28;19980;-44
2023/10/08 00:08:04;;;;;;;;;;;;;;;20.75;58.54;102182.84;5041678;28;19917;-47
2023/10/08 00:10:34;;;;;;;;;;;;;;;20.75;58.76;102174.75;5040334;28;19917;-44
2023/10/08 00:12:59;;;;;;;;;;;;;;;20.75;58.59;102185.53;5041452;28;19913;-46
2023/10/08 00:15:25;;;;;;;;;;;;;;;20.74;58.53;102187.41;5041147;28;20056;-46
2023/10/08 00:17:52;;;;;;;;;;;;;;;20.74;58.83;102189.25;5040489;28;19916;-45
2023/10/08 00:20:25;;;;;;;;;;;;;;;20.72;58.79;102184.81;5040925;28;19956;-45
2023/10/08 00:22:50;;;;;;;;;;;;;;;20.74;58.58;102208.19;5038844;28;19963;-45
2023/10/08 00:25:19;;;;;;;;;;;;;;;20.72;58.78;102211.00;5041729;28;19913;-46
2023/10/08 00:27:45;;;;;;;;;;;;;;;20.71;58.69;102214.72;5037816;28;19921;-45
2023/10/08 00:30:17;;;;;;;;;;;;;;;20.70;58.87;102213.88;5037537;28;19913;-47
2023/10/08 00:32:42;;;;;;;;;;;;;;;20.70;58.64;102216.56;5034009;28;19917;-44
2023/10/08 00:35:12;;;;;;;;;;;;;;;20.70;58.77;102218.44;5034368;28;19967;-44
2023/10/08 00:37:37;;;;;;;;;;;;;;;20.70;58.77;102221.13;5040131;28;19979;-46
2023/10/08 00:40:10;;;;;;;;;;;;;;;20.68;58.65;102215.84;5037519;28;19917;-44
2023/10/08 00:42:36;;;;;;;;;;;;;;;20.67;58.78;102203.34;5035502;28;19970;-45
2023/10/08 00:45:04;;;;;;;;;;;;;;;20.67;58.63;102200.66;5035440;28;19913;-46
2023/10/08 00:47:34;;;;;;;;;;;;;;;20.67;58.90;102197.94;5041032;28;19913;-44
2023/10/08 00:50:08;;;;;;;;;;;;;;;20.66;58.63;102198.94;5037174;28;20068;-44
2023/10/08 00:52:40;;;;;;;;;;;;;;;20.66;58.75;102188.16;5040268;28;19944;-47
2023/10/08 00:57:35;;;;;;;;;;;;;;;20.65;58.78;102186.44;5040634;28;19924;-45
2023/10/08 01:00:00;;;;;;;;;;;;;;;20.65;58.77;102177.50;5040130;28;19944;-45
2023/10/08 01:02:42;;;;;;;;;;;;;;;20.64;58.74;102173.06;5042042;28;20324;-45
2023/10/08 01:05:09;;;;;;;;;;;;;;;20.63;58.88;102177.63;5038714;28;19920;-45
2023/10/08 01:07:35;;;;;;;;;;;;;;;20.64;58.98;102181.16;5042738;28;19963;-45
2023/10/08 01:10:05;;;;;;;;;;;;;;;20.64;58.64;102167.66;5040385;28;20011;-45
2023/10/08 01:15:07;;;;;;;;;;;;;;;20.63;58.83;102168.66;5041367;28;19924;-44
2023/10/08 01:17:32;;;;;;;;;;;;;;;20.62;58.82;102164.28;5039541;28;19928;-46
2023/10/08 01:20:20;;;;;;;;;;;;;;;20.62;59.04;102158.88;5039332;28;19916;-44
2023/10/08 01:22:42;;;;;;;;;;;;;;;20.62;58.91;102137.25;5039572;28;19921;-45
2023/10/08 01:25:10;;;;;;;;;;;;;;;20.61;58.75;102147.22;5039379;28;20417;-45
2023/10/08 01:27:37;;;;;;;;;;;;;;;20.61;58.89;102166.13;5039283;28;19988;-46
2023/10/08 01:30:17;;;;;;;;;;;;;;;20.60;58.83;102174.38;5038877;28;19917;-46
2023/10/08 01:32:43;;;;;;;;;;;;;;;20.61;58.89;102170.69;5040803;28;20062;-45
2023/10/08 01:35:22;;;;;;;;;;;;;;;20.61;58.81;102181.50;5039355;28;19924;-45
2023/10/08 01:37:49;;;;;;;;;;;;;;;20.59;59.07;102197.84;5035411;28;19917;-45
2023/10/08 01:40:14;;;;;;;;;;;;;;;20.59;59.01;102207.78;5041326;28;19919;-46
2023/10/08 01:42:39;;;;;;;;;;;;;;;20.59;58.92;102202.41;5037866;28;19912;-46
2023/10/08 01:45:06;;;;;;;;;;;;;;;20.60;59.02;102204.09;5036118;28;20076;-46
2023/10/08 01:47:32;;;;;;;;;;;;;;;20.59;58.91;102202.41;5037738;28;19917;-44
2023/10/08 01:50:05;;;;;;;;;;;;;;;20.58;58.96;102204.25;5041621;28;20282;-44
2023/10/08 01:52:30;;;;;;;;;;;;;;;20.58;58.95;102208.81;5037578;28;19981;-45
2023/10/08 01:54:56;;;;;;;;;;;;;;;20.58;58.93;102216.91;5035868;28;19918;-45
2023/10/08 01:57:21;;;;;;;;;;;;;;;20.57;58.77;102231.44;5040756;28;19980;-45
2023/10/08 01:59:46;;;;;;;;;;;;;;;20.58;58.70;102241.22;5037554;28;20002;-46
2023/10/08 02:02:13;;;;;;;;;;;;;;;20.57;58.86;102228.72;5038183;28;19924;-45
2023/10/08 02:04:38;;;;;;;;;;;;;;;20.56;58.84;102232.41;5038619;28;19917;-44
2023/10/08 02:07:03;;;;;;;;;;;;;;;20.57;58.73;102248.50;5043051;28;19959;-44
2023/10/08 02:09:29;;;;;;;;;;;;;;;20.56;59.04;102259.41;5039283;28;19967;-48
2023/10/08 02:11:54;;;;;;;;;;;;;;;20.56;59.10;102267.53;5035788;28;19975;-46
2023/10/08 02:14:20;;;;;;;;;;;;;;;20.56;58.89;102279.22;5034843;28;19925;-45
2023/10/08 02:16:46;;;;;;;;;;;;;;;20.56;59.06;102281.03;5039084;28;19913;-45
2023/10/08 02:19:11;;;;;;;;;;;;;;;20.55;58.81;102280.19;5037628;28;19919;-45
2023/10/08 02:21:39;;;;;;;;;;;;;;;20.55;58.82;102272.09;5041190;28;19952;-46
2023/10/08 02:24:05;;;;;;;;;;;;;;;20.55;58.74;102263.13;5039098;28;20375;-44
2023/10/08 02:26:30;;;;;;;;;;;;;;;20.54;59.01;102251.47;5037248;28;19919;-45
2023/10/08 02:28:58;;;;;;;;;;;;;;;20.54;59.08;102277.66;5038933;28;19920;-45
2023/10/08 02:31:24;;;;;;;;;;;;;;;20.54;58.83;102293.84;5041651;28;19917;-45
2023/10/08 02:33:49;;;;;;;;;;;;;;;20.53;59.14;102314.63;5042291;28;20538;-45
2023/10/08 02:36:15;;;;;;;;;;;;;;;20.53;58.76;102273.25;5036050;28;19914;-47
2023/10/08 02:38:40;;;;;;;;;;;;;;;20.53;59.12;102301.13;5034853;28;19973;-46
2023/10/08 02:41:06;;;;;;;;;;;;;;;20.52;58.81;102302.13;5034531;28;19927;-45
2023/10/08 02:43:34;;;;;;;;;;;;;;;20.53;58.80;102311.06;5033815;28;19916;-45
2023/10/08 02:45:59;;;;;;;;;;;;;;;20.52;58.69;102294.00;5038137;28;19920;-44
2023/10/08 02:48:25;;;;;;;;;;;;;;;20.52;58.77;102268.81;5035381;28;19909;-44
2023/10/08 02:50:53;;;;;;;;;;;;;;;20.52;58.80;102285.03;5039771;28;20375;-46
2023/10/08 02:53:20;;;;;;;;;;;;;;;20.51;58.70;102303.09;5039434;28;20387;-44
2023/10/08 02:55:46;;;;;;;;;;;;;;;20.51;58.75;102307.66;5036796;28;19924;-45
2023/10/08 02:58:14;;;;;;;;;;;;;;;20.50;58.58;102303.25;5041097;28;19980;-46
2023/10/08 03:00:40;;;;;;;;;;;;;;;20.50;58.88;102297.84;5038557;28;19912;-46
2023/10/08 03:03:15;;;;;;;;;;;;;;;20.49;58.57;102297.00;5037747;28;19935;-44
2023/10/08 03:05:41;;;;;;;;;;;;;;;20.50;58.84;102289.75;5042625;28;20531;-45
2023/10/08 03:08:10;;;;;;;;;;;;;;;20.49;58.84;102305.09;5041161;28;19913;-45
2023/10/08 03:10:37;;;;;;;;;;;;;;;20.48;58.42;102308.81;5043371;28;19917;-45
2023/10/08 03:13:06;;;;;;;;;;;;;;;20.47;58.57;102312.44;5039776;28;19991;-45
2023/10/08 03:15:46;;;;;;;;;;;;;;;20.47;58.46;102315.16;5042639;28;19917;-47
2023/10/08 03:18:14;;;;;;;;;;;;;;;20.46;58.81;102317.00;5043085;28;19917;-46
2023/10/08 03:20:42;;;;;;;;;;;;;;;20.46;58.72;102321.56;5044188;28;19923;-45
2023/10/08 03:23:13;;;;;;;;;;;;;;;20.45;58.68;102326.13;5041077;28;19932;-45
2023/10/08 03:25:45;;;;;;;;;;;;;;;20.45;58.65;102328.81;5043668;28;19916;-46
2023/10/08 03:28:16;;;;;;;;;;;;;;;20.45;58.54;102327.97;5037734;28;19960;-46
2023/10/08 03:30:50;;;;;;;;;;;;;;;20.44;58.38;102320.88;5040581;28;19924;-46
2023/10/08 03:33:22;;;;;;;;;;;;;;;20.44;58.65;102321.72;5042643;28;19976;-44
2023/10/08 03:35:49;;;;;;;;;;;;;;;20.43;58.66;102302.94;5046709;28;20020;-46
2023/10/08 03:41:03;;;;;;;;;;;;;;;20.42;58.74;102348.00;5037744;28;19920;-47
2023/10/08 03:43:34;;;;;;;;;;;;;;;20.41;58.38;102346.31;5040423;28;19913;-47
2023/10/08 03:46:05;;;;;;;;;;;;;;;20.41;58.50;102323.84;5039938;28;19913;-48
2023/10/08 03:48:36;;;;;;;;;;;;;;;20.40;58.33;102331.09;5045473;28;19935;-47
2023/10/08 03:51:06;;;;;;;;;;;;;;;20.40;58.57;102341.06;5042921;28;20008;-46
2023/10/08 03:53:34;;;;;;;;;;;;;;;20.39;58.52;102371.75;5042561;28;19944;-47
2023/10/08 03:56:04;;;;;;;;;;;;;;;20.40;58.67;102368.06;5039788;28;19917;-47
2023/10/08 03:58:30;;;;;;;;;;;;;;;20.39;58.62;102374.44;5038066;28;19944;-45
2023/10/08 04:01:09;;;;;;;;;;;;;;;20.38;58.41;102380.84;5040783;28;19917;-46
2023/10/08 04:04:12;;;;;;;;;;;;;;;20.38;58.34;102387.13;5038363;28;20020;-46
2023/10/08 04:06:30;;;;;;;;;;;;;;;20.37;58.67;102398.06;5039420;28;19921;-45
2023/10/08 04:09:11;;;;;;;;;;;;;;;20.37;58.38;102408.88;5037242;28;19913;-48
2023/10/08 04:11:51;;;;;;;;;;;;;;;20.36;58.56;102399.94;5046931;28;19928;-49
2023/10/08 04:14:20;;;;;;;;;;;;;;;20.36;58.37;102393.66;5040698;28;19916;-45
2023/10/08 04:16:45;;;;;;;;;;;;;;;20.35;58.66;102394.69;5040977;28;19913;-46
2023/10/08 04:19:11;;;;;;;;;;;;;;;20.34;58.68;102414.56;5042102;28;19945;-46
2023/10/08 04:21:36;;;;;;;;;;;;;;;20.34;58.62;102409.16;5035871;28;19964;-45
2023/10/08 04:24:08;;;;;;;;;;;;;;;20.33;58.44;102408.31;5036325;28;19959;-45
2023/10/08 04:26:33;;;;;;;;;;;;;;;20.32;58.65;102412.00;5043193;28;19917;-44
2023/10/08 04:29:02;;;;;;;;;;;;;;;20.32;58.59;102414.72;5035708;28;20000;-45
2023/10/08 04:31:37;;;;;;;;;;;;;;;20.33;58.22;102420.97;5039540;28;19916;-46
2023/10/08 04:34:09;;;;;;;;;;;;;;;20.31;58.32;102421.13;5039721;28;20563;-46
2023/10/08 04:36:34;;;;;;;;;;;;;;;20.30;58.26;102408.56;5035255;28;20358;-46
2023/10/08 04:39:05;;;;;;;;;;;;;;;20.30;58.44;102405.03;5040157;28;19925;-44
2023/10/08 04:41:30;;;;;;;;;;;;;;;20.30;58.37;102367.22;5042096;28;19913;-45
2023/10/08 04:43:55;;;;;;;;;;;;;;;20.29;58.47;102374.47;5042804;28;19913;-45
2023/10/08 04:49:07;;;;;;;;;;;;;;;20.28;58.31;102361.97;5073914;28;19932;-46
2023/10/08 04:51:43;;;;;;;;;;;;;;;20.28;58.57;102367.38;5039669;28;19917;-47
2023/10/08 04:54:09;;;;;;;;;;;;;;;20.27;58.62;102389.97;5042679;28;19921;-45
2023/10/08 04:56:34;;;;;;;;;;;;;;;20.27;58.42;102403.47;5043452;28;19935;-46
2023/10/08 04:58:59;;;;;;;;;;;;;;;20.27;58.30;102399.94;5037491;28;19965;-46
2023/10/08 05:01:37;;;;;;;;;;;;;;;20.26;58.66;102390.09;5040107;28;19921;-44
2023/10/08 05:09:09;;;;;;;;;;;;;;;20.25;58.41;102435.16;5043162;28;19992;-45
2023/10/08 05:17:21;;;;;;;;;;;;;;;20.23;58.65;102429.06;5043615;28;19917;-46
2023/10/08 05:20:17;;;;;;;;;;;;;;;20.23;58.78;102440.72;5031622;28;19917;-48
2023/10/08 05:22:44;;;;;;;;;;;;;;;20.23;58.78;102469.56;5041193;28;20015;-46
2023/10/08 05:25:24;;;;;;;;;;;;;;;20.22;58.85;102484.94;5037707;28;19917;-47
2023/10/08 05:30:25;;;;;;;;;;;;;;;20.22;58.57;102467.88;5041912;28;19921;-48
2023/10/08 05:33:06;;;;;;;;;;;;;;;20.22;59.01;102471.44;5040904;28;19913;-49
2023/10/08 05:49:03;;;;;;;;;;;;;;;20.22;59.48;102492.19;5046740;28;19913;-50
2023/10/08 05:51:45;;;;;;;;;;;;;;;20.22;59.62;102484.09;5040143;28;19924;-48
2023/10/08 06:05:09;;;;;;;;;;;;;;;20.21;59.83;102507.50;5036277;28;19974;-46
2023/10/08 06:07:47;;;;;;;;;;;;;;;20.22;59.73;102503.84;5039072;28;20311;-45
2023/10/08 06:10:41;;;;;;;;;;;;;;;20.22;59.69;102489.47;5037453;28;20364;-48
2023/10/08 06:13:04;;;;;;;;;;;;;;;20.22;59.95;102494.88;5040292;28;19917;-47
2023/10/08 06:15:48;;;;;;;;;;;;;;;20.22;60.03;102511.09;5041119;28;19921;-50
2023/10/08 06:18:14;;;;;;;;;;;;;;;20.22;59.84;102505.69;5037860;28;19952;-51
2023/10/08 06:20:42;;;;;;;;;;;;;;;20.22;59.88;102513.78;5039267;28;19918;-46
2023/10/08 06:23:08;;;;;;;;;;;;;;;19.86;59.81;102443.19;5039536;28;19917;-47
2023/10/08 06:25:44;;;;;;;;;;;;;;;20.22;59.79;102484.94;5038074;28;19913;-46
2023/10/08 06:28:09;;;;;;;;;;;;;;;20.22;59.86;102494.88;5034640;28;19928;-46
2023/10/08 06:30:34;;;;;;;;;;;;;;;20.22;59.82;102514.63;5040045;28;19937;-45
2023/10/08 06:33:00;;;;;;;;;;;;;;;20.21;60.07;102520.16;5036887;28;19913;-47
2023/10/08 06:35:27;;;;;;;;;;;;;;;20.22;59.99;102489.47;5032540;28;19964;-45
2023/10/08 06:37:55;;;;;;;;;;;;;;;20.22;59.80;102470.56;5041488;28;19913;-44
2023/10/08 06:40:40;;;;;;;;;;;;;;;20.22;59.82;102481.38;5041003;28;20003;-47
2023/10/08 06:43:16;;;;;;;;;;;;;;;20.21;60.09;102491.28;5043695;28;20026;-46
2023/10/08 06:45:43;;;;;;;;;;;;;;;20.21;60.13;102504.81;5039354;28;19917;-47
2023/10/08 06:48:08;;;;;;;;;;;;;;;20.21;60.21;102523.72;5039202;28;19913;-50
2023/10/08 06:50:34;;;;;;;;;;;;;;;20.23;59.86;102523.59;5038682;28;19913;-49
2023/10/08 06:52:59;;;;;;;;;;;;;;;20.22;60.13;102536.25;5039134;28;19918;-47
2023/10/08 06:55:27;;;;;;;;;;;;;;;20.22;59.99;102559.69;5042906;28;19978;-48
2023/10/08 06:57:52;;;;;;;;;;;;;;;20.23;59.94;102547.91;5040562;28;19975;-46
2023/10/08 07:00:37;;;;;;;;;;;;;;;20.23;59.96;102534.41;5043868;28;19912;-46
2023/10/08 07:03:02;;;;;;;;;;;;;;;20.22;60.00;102559.69;5040347;28;19917;-46
2023/10/08 07:05:28;;;;;;;;;;;;;;;20.23;59.89;102556.00;5042441;28;20363;-49
2023/10/08 07:07:54;;;;;;;;;;;;;;;20.22;60.16;102562.41;5039147;28;19913;-48
2023/10/08 07:10:19;;;;;;;;;;;;;;;20.21;59.94;102558.81;5039287;28;20288;-46
2023/10/08 07:12:46;;;;;;;;;;;;;;;20.22;59.96;102575.91;5041936;28;19921;-46
2023/10/08 07:15:12;;;;;;;;;;;;;;;20.22;60.23;102576.75;5036819;28;19917;-48
2023/10/08 07:17:40;;;;;;;;;;;;;;;20.22;59.75;102575.91;5039911;28;19935;-48
2023/10/08 07:20:13;;;;;;;;;;;;;;;20.22;59.99;102592.13;5045434;28;19940;-47
2023/10/08 07:22:39;;;;;;;;;;;;;;;20.21;60.00;102583.13;5039385;28;19917;-46
2023/10/08 07:25:08;;;;;;;;;;;;;;;20.21;60.19;102577.72;5043001;28;19915;-48
2023/10/08 07:27:37;;;;;;;;;;;;;;;20.21;59.76;102564.22;5044274;28;19984;-45
2023/10/08 07:30:10;;;;;;;;;;;;;;;20.21;60.05;102568.78;5038759;28;20233;-47
2023/10/08 07:32:37;;;;;;;;;;;;;;;20.21;60.10;102572.31;5042367;28;20004;-45
2023/10/08 07:35:16;;;;;;;;;;;;;;;20.21;59.68;102568.78;5038082;28;19960;-45
2023/10/08 07:37:43;;;;;;;;;;;;;;;20.20;59.63;102570.63;5040620;28;19917;-46
2023/10/08 07:40:12;;;;;;;;;;;;;;;20.19;59.65;102555.41;5045092;28;20367;-46
2023/10/08 07:42:37;;;;;;;;;;;;;;;20.19;59.61;102544.63;5039921;28;19948;-46
2023/10/08 07:45:04;;;;;;;;;;;;;;;20.20;59.52;102537.34;5038853;28;19959;-45
2023/10/08 07:47:29;;;;;;;;;;;;;;;20.18;59.60;102534.81;5044234;28;20003;-46
2023/10/08 07:49:55;;;;;;;;;;;;;;;20.19;59.59;102532.97;5040233;28;19920;-47
2023/10/08 07:52:20;;;;;;;;;;;;;;;20.18;59.77;102542.91;5041594;28;19959;-47
2023/10/08 07:54:46;;;;;;;;;;;;;;;20.18;59.77;102556.41;5042034;28;19917;-45
2023/10/08 07:57:18;;;;;;;;;;;;;;;20.18;59.86;102558.25;5040204;28;20477;-46
2023/10/08 07:59:47;;;;;;;;;;;;;;;20.18;59.59;102555.56;5042343;28;19939;-46
2023/10/08 08:02:13;;;;;;;;;;;;;;;20.18;59.57;102556.41;5038639;28;19917;-46
2023/10/08 08:04:39;;;;;;;;;;;;;;;20.19;59.62;102570.78;5039458;28;19932;-47
2023/10/08 08:07:06;;;;;;;;;;;;;;;20.19;59.77;102578.88;5042028;28;19935;-47
2023/10/08 08:09:35;;;;;;;;;;;;;;;20.19;59.65;102597.78;5038429;28;19909;-47
2023/10/08 08:12:07;;;;;;;;;;;;;;;20.18;59.60;102591.53;5039743;28;19921;-50
2023/10/08 08:14:32;;;;;;;;;;;;;;;20.20;59.72;102600.31;5039160;28;19936;-48
2023/10/08 08:17:13;;;;;;;;;;;;;;;20.20;59.68;102613.84;5037246;28;19921;-50
2023/10/08 08:19:38;;;;;;;;;;;;;;;20.21;59.18;102611.97;5041403;28;19913;-47
2023/10/08 08:22:03;;;;;;;;;;;;;;;20.17;58.29;102627.59;5039180;28;19932;-50
2023/10/08 08:24:29;;;;;;;;;;;;;;;20.17;58.93;102632.16;5040774;28;19920;-45
2023/10/08 08:27:11;;;;;;;;;;;;;;;20.16;59.09;102644.81;5039345;28;19917;-46
2023/10/08 08:29:46;;;;;;;;;;;;;;;20.17;59.02;102656.44;5036839;28;19913;-47
2023/10/08 08:32:21;;;;;;;;;;;;;;;20.17;59.31;102638.41;5037316;28;19917;-51
2023/10/08 08:34:50;;;;;;;;;;;;;;;20.18;59.18;102640.13;5040530;28;19920;-47
2023/10/08 08:37:15;;;;;;;;;;;;;;;20.20;59.30;102645.38;5041216;28;19917;-48
2023/10/08 08:39:41;;;;;;;;;;;;;;;20.21;59.36;102644.38;5040901;28;19923;-46
2023/10/08 08:42:07;;;;;;;;;;;;;;;20.22;59.44;102654.22;5037927;28;19948;-45
2023/10/08 08:44:33;;;;;;;;;;;;;;;20.24;59.46;102657.63;5042937;28;19920;-44
2023/10/08 08:46:58;;;;;;;;;;;;;;;20.22;59.40;102652.38;5036620;28;19933;-45
2023/10/08 08:49:23;;;;;;;;;;;;;;;20.25;59.34;102647.69;5038165;28;19913;-48
2023/10/08 08:51:53;;;;;;;;;;;;;;;19.80;59.29;102577.84;5039005;28;19913;-44
2023/10/08 08:54:19;;;;;;;;;;;;;;;20.26;59.37;102649.38;5068389;28;20344;-45
2023/10/08 08:56:44;;;;;;;;;;;;;;;20.27;59.38;102646.56;5042643;28;20165;-45
2023/10/08 08:59:11;;;;;;;;;;;;;;;20.27;59.19;102637.63;5035853;28;19924;-47
2023/10/08 09:01:38;;;;;;;;;;;;;;;20.28;59.19;102633.91;5038358;28;19956;-47
2023/10/08 09:04:06;;;;;;;;;;;;;;;20.28;59.24;102623.13;5020500;28;19963;-45
2023/10/08 09:06:37;;;;;;;;;;;;;;;20.29;59.49;102624.81;5041318;28;19912;-47
2023/10/08 09:11:54;;;;;;;;;;;;;;;20.31;59.42;102625.56;5042380;28;19924;-46
2023/10/08 09:14:24;;;;;;;;;;;;;;;20.31;59.18;102626.41;5036692;28;19921;-47
2023/10/08 09:16:50;;;;;;;;;;;;;;;20.32;59.33;102629.94;5038468;28;19917;-46
2023/10/08 09:19:18;;;;;;;;;;;;;;;20.32;59.11;102629.94;5041792;28;19927;-46
2023/10/08 09:22:06;;;;;;;;;;;;;;;20.32;59.05;102629.94;5038941;28;19917;-48
2023/10/08 09:24:36;;;;;;;;;;;;;;;20.33;59.06;102634.34;5038725;28;19913;-46
2023/10/08 09:27:02;;;;;;;;;;;;;;;20.33;59.23;102632.50;5039297;28;19995;-47
2023/10/08 09:29:28;;;;;;;;;;;;;;;20.34;58.36;102636.06;5037441;28;19913;-47
2023/10/08 09:31:56;;;;;;;;;;;;;;;20.31;57.41;102633.66;5040515;28;19917;-47
2023/10/08 09:34:22;;;;;;;;;;;;;;;20.26;56.20;102634.03;5039018;28;19963;-46
2023/10/08 09:36:48;;;;;;;;;;;;;;;20.21;55.70;102639.84;5040894;28;20164;-47
2023/10/08 09:39:23;;;;;;;;;;;;;;;20.18;55.87;102644.69;5032162;28;19933;-48
2023/10/08 09:41:48;;;;;;;;;;;;;;;20.16;55.39;102643.94;5038270;28;19924;-46
2023/10/08 09:44:13;;;;;;;;;;;;;;;20.12;55.18;102643.34;5041035;28;20264;-46
2023/10/08 09:46:38;;;;;;;;;;;;;;;20.09;55.03;102635.56;5039125;28;19913;-45
2023/10/08 09:49:07;;;;;;;;;;;;;;;20.06;54.41;102637.66;5040222;28;19936;-45
2023/10/08 09:51:34;;;;;;;;;;;;;;;20.00;54.23;102638.19;5072311;28;19924;-47
2023/10/08 09:54:16;;;;;;;;;;;;;;;19.95;54.41;102647.53;5039043;28;19936;-47
2023/10/08 09:56:44;;;;;;;;;;;;;;;19.95;54.63;102638.56;5038364;28;20016;-46
2023/10/08 09:59:09;;;;;;;;;;;;;;;19.96;54.76;102643.88;5067497;28;19912;-46
2023/10/08 10:01:35;;;;;;;;;;;;;;;20.00;55.02;102644.44;5038557;28;19980;-49
2023/10/08 10:04:00;;;;;;;;;;;;;;;20.01;54.63;102637.19;5038583;28;19913;-47
2023/10/08 10:06:25;;;;;;;;;;;;;;;20.01;54.53;102640.75;5035885;28;19944;-45
2023/10/08 10:08:51;;;;;;;;;;;;;;;20.02;54.09;102647.88;5038204;28;19920;-45
2023/10/08 10:11:17;;;;;;;;;;;;;;;20.02;54.53;102642.47;5039450;28;19951;-47
2023/10/08 10:13:44;;;;;;;;;;;;;;;20.03;54.75;102636.06;5035147;28;19913;-48
2023/10/08 10:16:10;;;;;;;;;;;;;;;20.06;54.90;102643.06;5037223;28;19992;-46
2023/10/08 10:18:35;;;;;;;;;;;;;;;20.07;54.88;102637.50;5038997;28;19912;-47
2023/10/08 10:21:20;;;;;;;;;;;;;;;20.10;55.39;102639.94;5037962;28;19963;-45
2023/10/08 10:23:46;;;;;;;;;;;;;;;20.12;55.29;102639.81;5067905;28;19972;-46
2023/10/08 10:26:30;;;;;;;;;;;;;;;20.13;55.41;102645.06;5038235;28;19928;-48
2023/10/08 10:29:07;;;;;;;;;;;;;;;20.15;55.43;102632.28;5037122;28;19913;-46
2023/10/08 10:31:34;;;;;;;;;;;;;;;20.17;55.53;102643.81;5039469;28;19920;-48
2023/10/08 10:34:04;;;;;;;;;;;;;;;20.18;55.31;102656.34;5037255;28;19924;-46
2023/10/08 10:36:31;;;;;;;;;;;;;;;20.19;55.01;102658.03;5035922;28;19975;-50
2023/10/08 10:38:56;;;;;;;;;;;;;;;20.21;55.11;102660.59;5040622;28;19935;-50
2023/10/08 10:41:22;;;;;;;;;;;;;;;20.21;55.35;102655.19;5037394;28;19913;-50
2023/10/08 10:43:52;;;;;;;;;;;;;;;20.23;55.69;102650.53;5039542;28;19955;-47
2023/10/08 10:46:39;;;;;;;;;;;;;;;20.25;55.77;102655.78;5038429;28;19920;-45
2023/10/08 10:49:21;;;;;;;;;;;;;;;20.26;55.96;102654.78;5038317;28;19920;-48
2023/10/08 10:51:52;;;;;;;;;;;;;;;20.27;55.92;102654.66;5036807;28;19928;-49
2023/10/08 10:54:21;;;;;;;;;;;;;;;20.28;56.30;102659.06;5037738;28;20445;-46
2023/10/08 10:56:47;;;;;;;;;;;;;;;20.28;56.47;102661.78;5035641;28;19920;-49
2023/10/08 10:59:18;;;;;;;;;;;;;;;20.28;56.33;102644.72;5037273;28;19913;-47
2023/10/08 11:01:55;;;;;;;;;;;;;;;20.28;56.69;102640.16;5040929;28;19967;-45
2023/10/08 11:04:28;;;;;;;;;;;;;;;20.31;56.50;102641.75;5052825;28;19913;-47
2023/10/08 11:06:56;;;;;;;;;;;;;;;20.32;56.83;102646.16;5039025;28;19920;-47
2023/10/08 11:09:35;;;;;;;;;;;;;;;20.31;56.87;102639.91;5034201;28;19913;-48
2023/10/08 11:12:02;;;;;;;;;;;;;;;20.32;56.84;102635.34;5037750;28;19921;-48
2023/10/08 11:14:27;;;;;;;;;;;;;;;20.32;56.88;102647.00;5037675;28;19928;-47
2023/10/08 11:16:53;;;;;;;;;;;;;;;20.33;57.27;102646.00;5068644;28;19917;-46
2023/10/08 11:19:21;;;;;;;;;;;;;;;20.35;57.17;102638.66;5035459;28;19920;-45
2023/10/08 11:21:50;;;;;;;;;;;;;;;20.35;57.42;102633.25;5041027;28;19943;-45
2023/10/08 11:24:27;;;;;;;;;;;;;;;20.34;57.53;102623.41;5037373;28;20379;-46
2023/10/08 11:27:15;;;;;;;;;;;;;;;20.35;57.19;102632.38;5039893;28;19940;-46
2023/10/08 11:29:40;;;;;;;;;;;;;;;20.36;57.31;102626.84;5039478;28;19920;-44
2023/10/08 11:32:07;;;;;;;;;;;;;;;20.36;57.57;102620.59;5041071;28;19913;-48
2023/10/08 11:34:38;;;;;;;;;;;;;;;20.37;57.62;102622.28;5044851;28;19967;-47
2023/10/08 11:37:07;;;;;;;;;;;;;;;20.37;57.63;102619.59;5034161;28;19928;-49
2023/10/08 11:39:45;;;;;;;;;;;;;;;20.38;57.42;102616.75;5034174;28;19922;-46
2023/10/08 11:42:33;;;;;;;;;;;;;;;20.39;56.95;102613.06;5038230;28;19913;-45
2023/10/08 11:44:59;;;;;;;;;;;;;;;20.38;56.77;102603.22;5039728;28;19913;-47
2023/10/08 11:47:25;;;;;;;;;;;;;;;20.38;56.66;102599.69;5043201;28;19973;-46
2023/10/08 11:49:54;;;;;;;;;;;;;;;20.38;56.89;102595.13;5041483;28;19913;-46
2023/10/08 11:52:23;;;;;;;;;;;;;;;20.40;56.82;102589.59;5040808;28;19913;-47
2023/10/08 11:54:48;;;;;;;;;;;;;;;20.40;56.74;102578.81;5042879;28;19971;-48
2023/10/08 11:57:14;;;;;;;;;;;;;;;20.40;56.83;102581.50;5033887;28;19921;-47
2023/10/08 11:59:39;;;;;;;;;;;;;;;20.40;57.06;102571.53;5042585;28;19913;-46
2023/10/08 12:02:05;;;;;;;;;;;;;;;20.40;56.80;102578.81;5043650;28;20376;-46
2023/10/08 12:04:31;;;;;;;;;;;;;;;20.40;55.60;102576.09;5041160;28;19917;-45
2023/10/08 12:06:56;;;;;;;;;;;;;;;20.35;54.50;102563.00;5042873;28;19921;-45
2023/10/08 12:09:21;;;;;;;;;;;;;;;20.30;53.72;102564.38;5043395;28;20387;-47
2023/10/08 12:11:51;;;;;;;;;;;;;;;20.23;52.96;102556.00;5038483;28;19924;-47
2023/10/08 12:14:16;;;;;;;;;;;;;;;20.18;52.80;102547.47;5041672;28;19921;-47
2023/10/08 12:16:41;;;;;;;;;;;;;;;20.14;53.29;102554.13;5042529;28;20035;-47
2023/10/08 12:19:15;;;;;;;;;;;;;;;20.13;53.65;102547.00;5043374;28;19913;-46
2023/10/08 12:21:40;;;;;;;;;;;;;;;20.14;53.91;102535.22;5042965;28;19913;-45
2023/10/08 12:24:08;;;;;;;;;;;;;;;20.15;54.70;102535.06;5040901;28;19917;-45
2023/10/08 12:26:33;;;;;;;;;;;;;;;20.19;54.94;102538.34;5042395;28;20008;-46
2023/10/08 12:29:00;;;;;;;;;;;;;;;20.20;55.01;102532.81;5040171;28;19920;-49
2023/10/08 12:31:28;;;;;;;;;;;;;;;20.23;55.36;102529.00;5040003;28;19917;-47
2023/10/08 12:33:56;;;;;;;;;;;;;;;20.25;55.10;102521.59;5040766;28;19923;-49
2023/10/08 12:36:26;;;;;;;;;;;;;;;20.28;55.52;102520.47;5040752;28;19913;-47
2023/10/08 12:38:57;;;;;;;;;;;;;;;20.31;55.67;102525.59;5039642;28;19919;-45
2023/10/08 12:41:22;;;;;;;;;;;;;;;20.32;55.46;102527.31;5039929;28;19917;-47
2023/10/08 12:43:52;;;;;;;;;;;;;;;20.33;55.83;102520.91;5039264;28;20364;-48
2023/10/08 12:46:23;;;;;;;;;;;;;;;20.35;55.84;102516.22;5035237;28;19940;-46
2023/10/08 12:48:52;;;;;;;;;;;;;;;20.36;55.62;102515.22;5041281;28;19940;-47
2023/10/08 12:51:17;;;;;;;;;;;;;;;20.35;55.47;102506.28;5041772;28;19921;-47
2023/10/08 12:53:50;;;;;;;;;;;;;;;20.35;55.61;102498.19;5040128;28;20570;-46
2023/10/08 12:56:15;;;;;;;;;;;;;;;20.36;55.40;102505.28;5039641;28;19917;-48
2023/10/08 12:58:44;;;;;;;;;;;;;;;20.37;55.81;102504.28;5035799;28;19913;-46
2023/10/08 13:01:09;;;;;;;;;;;;;;;20.37;55.87;102496.16;5041515;28;20343;-48
2023/10/08 13:03:41;;;;;;;;;;;;;;;20.37;55.67;102496.16;5035804;28;19914;-48
2023/10/08 13:06:10;;;;;;;;;;;;;;;20.39;55.74;102486.09;5042330;28;19919;-46
2023/10/08 13:08:36;;;;;;;;;;;;;;;20.42;55.59;102493.03;5039749;28;19967;-47
2023/10/08 13:11:01;;;;;;;;;;;;;;;20.41;54.95;102494.91;5037029;28;19921;-45
2023/10/08 13:13:30;;;;;;;;;;;;;;;20.39;55.01;102496.91;5035790;28;19912;-46
2023/10/08 13:15:56;;;;;;;;;;;;;;;20.40;55.05;102497.75;5033337;28;19956;-44
2023/10/08 13:18:22;;;;;;;;;;;;;;;20.38;54.87;102497.03;5037857;28;19920;-44
2023/10/08 13:20:48;;;;;;;;;;;;;;;20.35;54.34;102508.13;5040115;28;19968;-45
2023/10/08 13:23:13;;;;;;;;;;;;;;;20.32;54.41;102503.00;5039620;28;19913;-45
2023/10/08 13:25:39;;;;;;;;;;;;;;;20.30;54.35;102503.13;5036579;28;19966;-46
2023/10/08 13:28:07;;;;;;;;;;;;;;;20.28;54.16;102499.72;5038171;28;19913;-45
2023/10/08 13:30:32;;;;;;;;;;;;;;;20.26;53.73;102517.03;5038044;28;19924;-45
2023/10/08 13:32:59;;;;;;;;;;;;;;;20.24;54.06;102519.88;5035729;28;20383;-46
2023/10/08 13:35:24;;;;;;;;;;;;;;;20.23;53.81;102518.19;5035563;28;19916;-45
2023/10/08 13:37:50;;;;;;;;;;;;;;;20.21;54.07;102504.81;5039024;28;19984;-47